createdAt,value
2022-08-21T00:00:32.655Z,23.28
2022-08-21T00:03:04.273Z,23.24
2022-08-21T00:05:32.616Z,23.11
2022-08-21T00:08:02.680Z,23.08
2022-08-21T00:10:29.209Z,22.64
2022-08-21T00:12:56.398Z,22.82
2022-08-21T00:15:32.050Z,22.82
2022-08-21T00:17:59.184Z,22.82
2022-08-21T00:20:25.818Z,22.72
2022-08-21T00:22:52.588Z,22.71
2022-08-21T00:25:20.980Z,22.66
2022-08-21T00:27:52.762Z,22.58
2022-08-21T00:30:23.370Z,22.47
2022-08-21T00:32:52.019Z,22.47
2022-08-21T00:35:20.972Z,22.16
2022-08-21T00:37:47.729Z,22.13
2022-08-21T00:40:21.936Z,22.17
2022-08-21T00:42:53.431Z,22.25
2022-08-21T00:45:22.084Z,22.20
2022-08-21T00:47:49.079Z,22.17
2022-08-21T00:50:21.565Z,22.15
2022-08-21T00:52:48.939Z,22.17
2022-08-21T00:55:17.598Z,22.11
2022-08-21T00:57:50.520Z,22.04
2022-08-21T01:00:22.429Z,22.05
2022-08-21T01:02:49.042Z,22.03
2022-08-21T01:05:17.384Z,22.00
2022-08-21T01:07:45.778Z,21.92
2022-08-21T01:10:24.128Z,21.85
2022-08-21T01:12:53.706Z,21.87
2022-08-21T01:15:22.658Z,21.79
2022-08-21T01:17:50.260Z,21.74
2022-08-21T01:20:17.491Z,21.69
2022-08-21T01:22:44.149Z,21.71
2022-08-21T01:25:14.540Z,21.61
2022-08-21T01:27:41.075Z,21.51
2022-08-21T01:30:24.232Z,21.60
2022-08-21T01:32:52.169Z,21.55
2022-08-21T01:35:19.694Z,21.53
2022-08-21T01:37:46.958Z,21.53
2022-08-21T01:40:16.579Z,21.49
2022-08-21T01:42:44.591Z,21.53
2022-08-21T01:45:12.081Z,21.48
2022-08-21T01:47:38.837Z,21.40
2022-08-21T01:50:08.816Z,21.41
2022-08-21T01:52:35.400Z,21.29
2022-08-21T01:55:02.178Z,21.30
2022-08-21T01:57:28.987Z,21.35
2022-08-21T01:59:55.577Z,21.35
2022-08-21T02:02:24.923Z,21.33
2022-08-21T02:04:54.550Z,21.27
2022-08-21T02:07:22.160Z,21.12
2022-08-21T02:09:48.653Z,20.51
2022-08-21T02:12:15.140Z,19.71
2022-08-21T02:14:41.641Z,19.45
2022-08-21T02:17:10.978Z,19.98
2022-08-21T02:19:40.698Z,20.23
2022-08-21T02:22:10.372Z,20.59
2022-08-21T02:24:38.534Z,20.79
2022-08-21T02:27:26.767Z,20.79
2022-08-21T02:29:58.787Z,20.77
2022-08-21T02:32:26.784Z,20.80
2022-08-21T02:34:53.685Z,20.73
2022-08-21T02:37:20.177Z,20.83
2022-08-21T02:39:46.787Z,20.77
2022-08-21T02:42:13.362Z,20.78
2022-08-21T02:44:39.838Z,20.75
2022-08-21T02:47:06.396Z,20.68
2022-08-21T02:49:32.889Z,20.72
2022-08-21T02:51:59.416Z,20.67
2022-08-21T02:54:26.167Z,20.64
2022-08-21T02:56:52.794Z,20.15
2022-08-21T02:59:19.274Z,19.68
2022-08-21T03:01:45.766Z,20.20
2022-08-21T03:04:12.295Z,20.43
2022-08-21T03:06:38.786Z,20.50
2022-08-21T03:09:05.447Z,20.48
2022-08-21T03:11:31.990Z,20.45
2022-08-21T03:13:58.509Z,20.41
2022-08-21T03:16:25.049Z,20.36
2022-08-21T03:18:51.497Z,20.41
2022-08-21T03:21:19.851Z,20.42
2022-08-21T03:23:47.515Z,20.35
2022-08-21T03:26:14.730Z,20.31
2022-08-21T03:28:42.747Z,20.35
2022-08-21T03:31:09.631Z,20.38
2022-08-21T03:33:36.322Z,20.32
2022-08-21T03:36:06.772Z,20.29
2022-08-21T03:38:35.244Z,20.29
2022-08-21T03:41:02.457Z,20.30
2022-08-21T03:43:31.267Z,20.26
2022-08-21T03:46:01.103Z,20.20
2022-08-21T03:48:27.652Z,20.17
2022-08-21T03:50:54.202Z,20.15
2022-08-21T03:53:20.897Z,20.06
2022-08-21T03:55:50.326Z,20.11
2022-08-21T03:58:19.714Z,20.13
2022-08-21T04:00:47.837Z,20.03
2022-08-21T04:03:14.346Z,20.04
2022-08-21T04:05:41.833Z,19.99
2022-08-21T04:08:08.763Z,19.98
2022-08-21T04:10:38.000Z,19.99
2022-08-21T04:13:05.952Z,19.98
2022-08-21T04:15:32.566Z,20.00
2022-08-21T04:17:59.935Z,19.99
2022-08-21T04:20:26.698Z,19.83
2022-08-21T04:22:53.778Z,19.81
2022-08-21T04:25:22.473Z,19.87
2022-08-21T04:27:49.485Z,19.92
2022-08-21T04:30:17.555Z,19.96
2022-08-21T04:32:49.962Z,19.79
2022-08-21T04:35:18.380Z,19.81
2022-08-21T04:37:45.012Z,19.81
2022-08-21T04:40:14.238Z,19.83
2022-08-21T04:42:53.195Z,19.79
2022-08-21T04:45:26.596Z,19.75
2022-08-21T04:47:54.966Z,19.69
2022-08-21T04:50:24.815Z,19.73
2022-08-21T04:52:51.503Z,19.72
2022-08-21T04:55:19.756Z,19.72
2022-08-21T04:57:48.671Z,19.77
2022-08-21T05:00:19.465Z,19.79
2022-08-21T05:02:48.600Z,19.67
2022-08-21T05:05:16.629Z,19.74
2022-08-21T05:07:45.499Z,19.77
2022-08-21T05:10:13.858Z,19.82
2022-08-21T05:12:42.875Z,19.84
2022-08-21T05:15:12.910Z,19.58
2022-08-21T05:17:43.130Z,19.66
2022-08-21T05:20:11.385Z,19.51
2022-08-21T05:22:37.946Z,19.45
2022-08-21T05:25:10.331Z,19.31
2022-08-21T05:27:39.218Z,19.70
2022-08-21T05:30:09.776Z,19.94
2022-08-21T05:32:37.405Z,19.93
2022-08-21T05:35:06.040Z,19.91
2022-08-21T05:37:32.754Z,19.99
2022-08-21T05:40:20.073Z,20.03
2022-08-21T05:42:53.998Z,19.96
2022-08-21T05:45:43.356Z,20.08
2022-08-21T05:48:20.148Z,20.18
2022-08-21T05:50:50.980Z,19.80
2022-08-21T05:53:20.558Z,20.18
2022-08-21T05:55:49.050Z,20.56
2022-08-21T05:58:17.968Z,20.66
2022-08-21T06:00:48.218Z,20.72
2022-08-21T06:03:20.474Z,20.90
2022-08-21T06:05:47.657Z,21.25
2022-08-21T06:08:18.205Z,21.40
2022-08-21T06:10:45.540Z,21.16
2022-08-21T06:13:12.879Z,21.57
2022-08-21T06:15:39.605Z,21.59
2022-08-21T06:18:06.466Z,21.42
2022-08-21T06:20:33.424Z,21.20
2022-08-21T06:23:00.026Z,21.61
2022-08-21T06:25:26.907Z,21.76
2022-08-21T06:27:53.460Z,21.87
2022-08-21T06:30:20.090Z,21.74
2022-08-21T06:32:46.534Z,21.20
2022-08-21T06:35:12.999Z,21.80
2022-08-21T06:37:39.463Z,21.73
2022-08-21T06:40:12.564Z,21.80
2022-08-21T06:42:39.823Z,22.06
2022-08-21T06:45:08.310Z,22.06
2022-08-21T06:47:34.884Z,21.82
2022-08-21T06:50:01.548Z,22.10
2022-08-21T06:52:28.075Z,22.20
2022-08-21T06:54:54.521Z,22.39
2022-08-21T06:57:20.987Z,22.59
2022-08-21T06:59:47.448Z,22.31
2022-08-21T07:02:14.106Z,22.65
2022-08-21T07:04:40.610Z,22.55
2022-08-21T07:07:07.071Z,22.81
2022-08-21T07:09:33.978Z,23.00
2022-08-21T07:12:01.015Z,23.04
2022-08-21T07:14:27.493Z,22.82
2022-08-21T07:16:53.983Z,23.26
2022-08-21T07:19:20.502Z,23.33
2022-08-21T07:21:47.575Z,23.71
2022-08-21T07:24:14.173Z,23.55
2022-08-21T07:26:41.109Z,23.79
2022-08-21T07:29:07.563Z,23.81
2022-08-21T07:31:34.022Z,23.96
2022-08-21T07:34:00.511Z,24.21
2022-08-21T07:36:26.980Z,24.20
2022-08-21T07:38:53.816Z,24.37
2022-08-21T07:41:23.510Z,24.28
2022-08-21T07:43:52.673Z,24.17
2022-08-21T07:46:20.418Z,24.52
2022-08-21T07:48:46.928Z,24.87
2022-08-21T07:51:15.916Z,25.37
2022-08-21T07:53:42.683Z,25.84
2022-08-21T07:56:09.495Z,26.44
2022-08-21T07:58:36.148Z,26.45
2022-08-21T08:01:02.702Z,27.37
2022-08-21T08:03:29.436Z,26.75
2022-08-21T08:05:57.521Z,27.28
2022-08-21T08:08:24.610Z,27.46
2022-08-21T08:10:51.443Z,27.10
2022-08-21T08:13:18.279Z,27.56
2022-08-21T08:15:44.820Z,27.03
2022-08-21T08:18:11.370Z,27.55
2022-08-21T08:20:37.965Z,27.61
2022-08-21T08:23:04.464Z,27.46
2022-08-21T08:25:36.623Z,27.66
2022-08-21T08:28:06.834Z,27.50
2022-08-21T08:30:45.090Z,27.80
2022-08-21T08:33:11.565Z,27.72
2022-08-21T08:35:39.144Z,26.87
2022-08-21T08:38:06.422Z,26.94
2022-08-21T08:40:45.797Z,27.08
2022-08-21T08:43:15.516Z,27.71
2022-08-21T08:45:47.641Z,26.81
2022-08-21T08:48:18.182Z,26.32
2022-08-21T08:50:50.160Z,27.63
2022-08-21T08:53:25.242Z,27.49
2022-08-21T08:55:53.446Z,27.68
2022-08-21T08:58:25.515Z,27.02
2022-08-21T09:00:54.833Z,27.39
2022-08-21T09:03:23.907Z,28.00
2022-08-21T09:06:19.002Z,28.10
2022-08-21T09:08:59.705Z,27.73
2022-08-21T09:11:32.315Z,27.91
2022-08-21T09:14:04.762Z,27.97
2022-08-21T09:17:13.386Z,27.86
2022-08-21T09:19:58.316Z,27.80
2022-08-21T09:22:43.650Z,26.89
2022-08-21T09:25:19.310Z,26.87
2022-08-21T09:27:45.823Z,27.95
2022-08-21T09:30:13.391Z,27.03
2022-08-21T09:32:40.711Z,27.44
2022-08-21T09:35:14.240Z,27.37
2022-08-21T09:37:46.611Z,27.78
2022-08-21T09:40:28.672Z,27.51
2022-08-21T09:43:20.249Z,27.55
2022-08-21T09:45:48.695Z,28.00
2022-08-21T09:48:15.080Z,26.91
2022-08-21T09:50:43.690Z,27.47
2022-08-21T09:53:26.912Z,27.63
2022-08-21T09:56:19.087Z,27.90
2022-08-21T09:58:51.655Z,27.96
2022-08-21T10:01:23.398Z,28.18
2022-08-21T10:04:02.495Z,28.44
2022-08-21T10:06:29.580Z,28.50
2022-08-21T10:09:21.098Z,27.53
2022-08-21T10:12:11.851Z,28.14
2022-08-21T10:14:46.399Z,28.42
2022-08-21T10:17:23.423Z,28.80
2022-08-21T10:20:29.404Z,27.88
2022-08-21T10:23:14.133Z,28.47
2022-08-21T10:26:14.046Z,27.66
2022-08-21T10:28:48.569Z,27.96
2022-08-21T10:31:45.962Z,27.38
2022-08-21T10:34:26.238Z,27.62
2022-08-21T10:37:13.846Z,27.87
2022-08-21T10:40:00.810Z,28.76
2022-08-21T10:43:07.815Z,27.76
2022-08-21T10:45:52.952Z,29.02
2022-08-21T10:48:47.597Z,28.68
2022-08-21T10:51:29.240Z,28.86
2022-08-21T10:54:23.199Z,27.73
2022-08-21T10:56:56.852Z,27.81
2022-08-21T10:59:35.436Z,28.63
2022-08-21T11:02:21.538Z,28.93
2022-08-21T11:04:58.305Z,28.79
2022-08-21T11:07:49.946Z,28.37
2022-08-21T11:10:25.695Z,28.68
2022-08-21T11:13:08.069Z,28.86
2022-08-21T11:15:59.992Z,28.38
2022-08-21T11:18:35.796Z,28.65
2022-08-21T11:21:04.829Z,28.94
2022-08-21T11:23:55.417Z,29.42
2022-08-21T11:26:37.826Z,28.62
2022-08-21T11:29:28.806Z,27.78
2022-08-21T11:32:32.536Z,28.76
2022-08-21T11:35:17.868Z,29.12
2022-08-21T11:37:52.274Z,29.09
2022-08-21T11:40:27.686Z,28.39
2022-08-21T11:43:00.396Z,29.30
2022-08-21T11:45:54.503Z,27.57
2022-08-21T11:48:55.025Z,28.87
2022-08-21T11:51:34.483Z,29.17
2022-08-21T11:54:20.096Z,28.64
2022-08-21T11:56:56.722Z,29.21
2022-08-21T11:59:46.749Z,28.67
2022-08-21T12:02:22.064Z,28.50
2022-08-21T12:04:54.374Z,29.09
2022-08-21T12:07:34.826Z,29.45
2022-08-21T12:10:05.137Z,28.95
2022-08-21T12:12:38.094Z,29.46
2022-08-21T12:15:16.907Z,29.18
2022-08-21T12:17:56.266Z,29.68
2022-08-21T12:20:22.682Z,29.45
2022-08-21T12:23:12.675Z,29.81
2022-08-21T12:26:01.643Z,30.00
2022-08-21T12:28:30.055Z,30.10
2022-08-21T12:30:58.249Z,28.69
2022-08-21T12:33:24.738Z,29.40
2022-08-21T12:35:55.880Z,29.92
2022-08-21T12:38:28.657Z,28.98
2022-08-21T12:41:11.313Z,29.54
2022-08-21T12:43:48.453Z,29.69
2022-08-21T12:46:27.457Z,29.81
2022-08-21T12:49:02.568Z,28.88
2022-08-21T12:51:57.462Z,28.13
2022-08-21T12:54:27.847Z,28.80
2022-08-21T12:57:06.981Z,29.04
2022-08-21T12:59:38.638Z,29.17
2022-08-21T13:02:17.799Z,29.24
2022-08-21T13:04:45.323Z,29.08
2022-08-21T13:07:19.020Z,29.39
2022-08-21T13:09:51.823Z,29.31
2022-08-21T13:12:21.300Z,28.92
2022-08-21T13:14:50.491Z,29.39
2022-08-21T13:17:25.502Z,29.46
2022-08-21T13:20:02.149Z,28.85
2022-08-21T13:22:34.267Z,29.00
2022-08-21T13:25:07.049Z,29.72
2022-08-21T13:27:35.020Z,28.83
2022-08-21T13:30:23.388Z,29.55
2022-08-21T13:32:58.410Z,29.21
2022-08-21T13:35:29.331Z,28.98
2022-08-21T13:37:57.021Z,29.77
2022-08-21T13:40:31.508Z,29.73
2022-08-21T13:42:58.926Z,29.59
2022-08-21T13:45:33.310Z,29.83
2022-08-21T13:48:06.157Z,29.13
2022-08-21T13:50:37.389Z,29.61
2022-08-21T13:53:07.853Z,29.37
2022-08-21T13:55:43.794Z,29.71
2022-08-21T13:58:12.483Z,29.85
2022-08-21T14:00:51.461Z,28.57
2022-08-21T14:03:33.589Z,29.26
2022-08-21T14:06:00.654Z,29.62
2022-08-21T14:08:36.929Z,29.64
2022-08-21T14:11:05.833Z,28.68
2022-08-21T14:13:41.495Z,29.72
2022-08-21T14:16:18.983Z,29.23
2022-08-21T14:18:52.897Z,29.50
2022-08-21T14:21:33.367Z,29.93
2022-08-21T14:24:03.576Z,29.77
2022-08-21T14:26:30.140Z,29.78
2022-08-21T14:29:00.895Z,29.91
2022-08-21T14:31:33.646Z,29.82
2022-08-21T14:34:00.358Z,30.27
2022-08-21T14:36:26.848Z,29.94
2022-08-21T14:38:53.364Z,29.12
2022-08-21T14:41:24.857Z,30.17
2022-08-21T14:43:55.978Z,30.14
2022-08-21T14:46:55.654Z,30.21
2022-08-21T14:49:27.033Z,30.30
2022-08-21T14:51:58.495Z,29.38
2022-08-21T14:54:32.422Z,29.02
2022-08-21T14:57:06.402Z,29.74
2022-08-21T14:59:34.179Z,30.17
2022-08-21T15:02:01.075Z,29.53
2022-08-21T15:04:27.645Z,29.94
2022-08-21T15:06:54.146Z,30.14
2022-08-21T15:09:20.707Z,29.62
2022-08-21T15:11:47.289Z,30.04
2022-08-21T15:14:22.494Z,29.29
2022-08-21T15:16:50.126Z,29.47
2022-08-21T15:19:17.161Z,29.35
2022-08-21T15:21:43.678Z,29.59
2022-08-21T15:24:10.254Z,29.92
2022-08-21T15:26:37.186Z,30.03
2022-08-21T15:29:06.755Z,29.95
2022-08-21T15:31:34.695Z,29.63
2022-08-21T15:34:01.183Z,29.44
2022-08-21T15:36:27.725Z,29.82
2022-08-21T15:38:54.264Z,29.11
2022-08-21T15:41:20.846Z,29.87
2022-08-21T15:43:50.318Z,29.77
2022-08-21T15:46:19.437Z,29.52
2022-08-21T15:48:47.135Z,29.97
2022-08-21T15:51:15.218Z,29.93
2022-08-21T15:53:42.910Z,29.71
2022-08-21T15:56:23.720Z,29.86
2022-08-21T15:58:54.311Z,29.52
2022-08-21T16:01:22.502Z,29.49
2022-08-21T16:03:50.962Z,29.46
2022-08-21T16:06:17.607Z,29.76
2022-08-21T16:09:04.436Z,29.62
2022-08-21T16:11:31.087Z,29.66
2022-08-21T16:13:57.658Z,29.38
2022-08-21T16:16:25.268Z,29.66
2022-08-21T16:18:52.653Z,28.54
2022-08-21T16:21:19.635Z,29.32
2022-08-21T16:23:46.180Z,29.55
2022-08-21T16:26:18.361Z,29.78
2022-08-21T16:28:46.399Z,29.90
2022-08-21T16:31:15.320Z,29.70
2022-08-21T16:33:44.868Z,29.87
2022-08-21T16:36:12.742Z,29.14
2022-08-21T16:38:40.323Z,29.59
2022-08-21T16:41:09.739Z,29.49
2022-08-21T16:43:36.565Z,29.11
2022-08-21T16:46:03.077Z,29.27
2022-08-21T16:48:29.818Z,29.72
2022-08-21T16:50:57.907Z,29.28
2022-08-21T16:53:25.926Z,28.85
2022-08-21T16:55:53.449Z,29.43
2022-08-21T16:58:26.049Z,29.60
2022-08-21T17:00:53.186Z,29.07
2022-08-21T17:03:25.906Z,29.36
2022-08-21T17:05:52.397Z,29.53
2022-08-21T17:08:18.880Z,29.40
2022-08-21T17:10:49.084Z,29.48
2022-08-21T17:13:16.155Z,28.99
2022-08-21T17:15:42.906Z,28.93
2022-08-21T17:18:19.305Z,29.38
2022-08-21T17:20:47.606Z,29.22
2022-08-21T17:23:15.100Z,28.77
2022-08-21T17:25:45.210Z,28.96
2022-08-21T17:28:23.411Z,28.98
2022-08-21T17:30:50.740Z,29.05
2022-08-21T17:33:19.297Z,29.06
2022-08-21T17:35:46.424Z,29.00
2022-08-21T17:38:14.955Z,29.05
2022-08-21T17:40:42.220Z,28.98
2022-08-21T17:43:11.653Z,28.68
2022-08-21T17:45:40.536Z,28.87
2022-08-21T17:48:07.102Z,28.60
2022-08-21T17:50:34.161Z,28.30
2022-08-21T17:53:00.818Z,28.17
2022-08-21T17:55:28.567Z,28.41
2022-08-21T17:57:55.939Z,28.60
2022-08-21T18:00:25.509Z,28.66
2022-08-21T18:03:04.613Z,28.70
2022-08-21T18:05:31.447Z,28.78
2022-08-21T18:07:57.904Z,28.49
2022-08-21T18:10:25.138Z,28.47
2022-08-21T18:12:52.146Z,28.37
2022-08-21T18:15:20.221Z,28.50
2022-08-21T18:17:49.812Z,28.29
2022-08-21T18:20:20.121Z,28.39
2022-08-21T18:22:47.041Z,28.31
2022-08-21T18:25:13.847Z,28.21
2022-08-21T18:27:42.613Z,27.67
2022-08-21T18:30:10.642Z,27.64
2022-08-21T18:32:37.332Z,27.62
2022-08-21T18:35:05.550Z,27.90
2022-08-21T18:37:32.131Z,27.60
2022-08-21T18:39:59.303Z,27.89
2022-08-21T18:42:28.664Z,27.90
2022-08-21T18:45:00.850Z,27.92
2022-08-21T18:47:37.265Z,27.51
2022-08-21T18:50:10.745Z,26.98
2022-08-21T18:52:38.519Z,27.35
2022-08-21T18:55:13.533Z,27.07
2022-08-21T18:57:42.155Z,27.08
2022-08-21T19:00:20.688Z,27.04
2022-08-21T19:02:47.391Z,26.65
2022-08-21T19:05:15.924Z,26.79
2022-08-21T19:07:44.032Z,26.73
2022-08-21T19:10:29.350Z,26.62
2022-08-21T19:13:00.258Z,26.82
2022-08-21T19:15:27.523Z,26.86
2022-08-21T19:17:55.784Z,26.85
2022-08-21T19:20:34.342Z,26.99
2022-08-21T19:23:02.375Z,26.73
2022-08-21T19:28:25.255Z,26.95
2022-08-21T19:30:58.755Z,26.73
2022-08-21T19:33:35.898Z,27.13
2022-08-21T19:36:03.947Z,27.00
2022-08-21T19:38:30.502Z,27.18
2022-08-21T19:40:59.039Z,26.87
2022-08-21T19:43:26.188Z,27.27
2022-08-21T19:45:56.979Z,27.31
2022-08-21T19:48:24.918Z,27.27
2022-08-21T19:50:52.592Z,27.26
2022-08-21T19:53:19.799Z,27.28
2022-08-21T19:55:48.234Z,27.26
2022-08-21T19:58:23.892Z,27.21
2022-08-21T20:00:50.421Z,27.17
2022-08-21T20:03:17.742Z,27.12
2022-08-21T20:05:47.768Z,27.18
2022-08-21T20:08:20.612Z,27.33
2022-08-21T20:10:49.774Z,27.30
2022-08-21T20:13:17.858Z,27.18
2022-08-21T20:15:45.506Z,27.13
2022-08-21T20:18:12.151Z,26.99
2022-08-21T20:20:38.693Z,26.98
2022-08-21T20:25:51.739Z,26.76
2022-08-21T20:28:18.403Z,26.62
2022-08-21T20:30:48.401Z,25.44
2022-08-21T20:33:15.752Z,26.10
2022-08-21T20:35:45.234Z,26.26
2022-08-21T20:38:11.771Z,26.30
2022-08-21T20:40:40.491Z,26.28
2022-08-21T20:43:08.332Z,26.21
2022-08-21T20:45:40.456Z,26.18
2022-08-21T20:48:31.837Z,26.02
2022-08-21T20:51:31.682Z,26.04
2022-08-21T20:54:16.974Z,26.13
2022-08-21T20:57:13.886Z,26.15
2022-08-21T20:59:50.318Z,25.60
2022-08-21T21:02:20.701Z,25.81
2022-08-21T21:04:52.406Z,25.79
2022-08-21T21:07:27.380Z,25.69
2022-08-21T21:09:56.772Z,25.42
2022-08-21T21:12:31.445Z,25.31
2022-08-21T21:15:05.571Z,25.06
2022-08-21T21:17:43.162Z,24.80
2022-08-21T21:20:54.025Z,24.81
2022-08-21T21:23:36.523Z,24.53
2022-08-21T21:29:23.625Z,24.40
2022-08-21T21:31:53.767Z,24.30
2022-08-21T21:34:22.388Z,23.98
2022-08-21T21:36:56.636Z,24.02
2022-08-21T21:39:36.107Z,23.94
2022-08-21T21:42:18.084Z,23.91
2022-08-21T21:45:21.560Z,23.86
2022-08-21T21:51:16.349Z,23.58
2022-08-21T21:54:04.036Z,23.65
2022-08-21T21:56:52.527Z,22.95
2022-08-21T21:59:51.226Z,23.14
2022-08-21T22:02:42.194Z,23.01
2022-08-21T22:05:43.383Z,23.28
2022-08-21T22:08:12.778Z,23.09
2022-08-21T22:11:00.155Z,23.05
2022-08-21T22:13:53.323Z,23.11
2022-08-21T22:16:22.257Z,23.06
2022-08-21T22:18:56.303Z,23.10
2022-08-21T22:21:36.041Z,23.05
2022-08-21T22:24:12.453Z,23.01
2022-08-21T22:26:46.055Z,22.70
2022-08-21T22:29:18.896Z,22.49
2022-08-21T22:32:02.379Z,22.60
2022-08-21T22:34:31.974Z,22.77
2022-08-21T22:37:02.754Z,22.75
2022-08-21T22:39:38.577Z,22.75
2022-08-21T22:42:21.458Z,22.74
2022-08-21T22:44:58.620Z,22.70
2022-08-21T22:47:39.203Z,22.70
2022-08-21T22:50:18.527Z,22.69
2022-08-21T22:53:06.839Z,22.66
2022-08-21T22:55:39.163Z,22.55
2022-08-21T22:58:21.018Z,22.48
2022-08-21T23:01:02.152Z,22.42
2022-08-21T23:03:50.739Z,22.26
2022-08-21T23:06:32.577Z,22.31
2022-08-21T23:09:00.904Z,22.07
2022-08-21T23:11:40.110Z,21.32
2022-08-21T23:14:07.257Z,21.36
2022-08-21T23:16:43.063Z,20.28
2022-08-21T23:19:38.248Z,21.39
2022-08-21T23:22:23.638Z,21.74
2022-08-21T23:25:50.146Z,21.77
2022-08-21T23:28:38.746Z,21.76
2022-08-21T23:31:14.319Z,21.76
2022-08-21T23:34:15.879Z,21.78
2022-08-21T23:37:16.999Z,21.80
2022-08-21T23:39:51.739Z,21.75
2022-08-21T23:42:28.540Z,21.74
2022-08-21T23:45:17.313Z,21.69
2022-08-21T23:48:02.468Z,21.64
2022-08-21T23:50:55.451Z,21.65
2022-08-21T23:53:44.250Z,21.56
2022-08-21T23:56:39.953Z,21.48
2022-08-21T23:59:28.270Z,21.45
